createdAt,value
2018-03-23T00:02:11.083Z,5.45
2018-03-23T00:04:40.043Z,5.45
2018-03-23T00:07:09.323Z,5.50
2018-03-23T00:09:38.251Z,5.41
2018-03-23T00:12:07.133Z,5.41
2018-03-23T00:14:36.384Z,5.46
2018-03-23T00:17:05.394Z,5.49
2018-03-23T00:19:34.342Z,5.45
2018-03-23T00:22:04.860Z,5.41
2018-03-23T00:24:33.766Z,5.47
2018-03-23T00:27:03.125Z,5.43
2018-03-23T00:29:32.459Z,5.46
2018-03-23T00:32:03.150Z,5.41
2018-03-23T00:34:32.261Z,5.35
2018-03-23T00:37:02.034Z,5.41
2018-03-23T00:39:30.964Z,5.41
2018-03-23T00:41:59.891Z,5.47
2018-03-23T00:44:29.212Z,5.50
2018-03-23T00:46:58.183Z,5.57
2018-03-23T00:49:27.075Z,5.59
2018-03-23T00:51:55.966Z,5.62
2018-03-23T00:54:24.900Z,5.56
2018-03-23T00:56:54.606Z,5.43
2018-03-23T00:59:23.498Z,5.42
2018-03-23T01:01:53.319Z,5.43
2018-03-23T01:04:22.552Z,5.45
2018-03-23T01:06:51.559Z,5.49
2018-03-23T01:09:20.461Z,5.51
2018-03-23T01:11:49.751Z,5.46
2018-03-23T01:14:18.624Z,5.52
2018-03-23T01:16:47.462Z,5.51
2018-03-23T01:19:16.751Z,5.54
2018-03-23T01:21:45.661Z,5.39
2018-03-23T01:24:14.516Z,5.36
2018-03-23T01:26:43.817Z,5.40
2018-03-23T01:29:12.670Z,5.50
2018-03-23T01:31:41.534Z,5.55
2018-03-23T01:34:10.885Z,5.56
2018-03-23T01:36:39.757Z,5.60
2018-03-23T01:39:08.618Z,5.53
2018-03-23T01:41:38.968Z,5.50
2018-03-23T01:44:07.838Z,5.40
2018-03-23T01:46:36.712Z,5.40
2018-03-23T01:49:06.371Z,5.43
2018-03-23T01:51:35.239Z,5.50
2018-03-23T01:54:06.442Z,5.48
2018-03-23T01:56:35.829Z,5.40
2018-03-23T01:59:05.630Z,5.41
2018-03-23T02:01:34.543Z,5.46
2018-03-23T02:04:05.373Z,5.41
2018-03-23T02:06:34.268Z,5.46
2018-03-23T02:09:05.321Z,5.46
2018-03-23T02:11:34.189Z,5.44
2018-03-23T02:14:05.426Z,5.43
2018-03-23T02:16:34.250Z,5.45
2018-03-23T02:19:03.272Z,5.45
2018-03-23T02:21:32.702Z,5.49
2018-03-23T02:24:03.456Z,5.57
2018-03-23T02:26:32.323Z,5.61
2018-03-23T02:29:01.931Z,5.57
2018-03-23T02:31:30.844Z,5.58
2018-03-23T02:33:59.843Z,5.60
2018-03-23T02:36:29.102Z,5.63
2018-03-23T02:38:57.947Z,5.64
2018-03-23T02:41:26.822Z,5.68
2018-03-23T02:43:56.112Z,5.61
2018-03-23T02:46:24.992Z,5.63
2018-03-23T02:48:53.882Z,5.57
2018-03-23T02:51:23.147Z,5.61
2018-03-23T02:53:52.033Z,5.61
2018-03-23T02:56:20.991Z,5.58
2018-03-23T02:58:50.218Z,5.52
2018-03-23T03:01:19.145Z,5.58
2018-03-23T03:03:48.119Z,5.63
2018-03-23T03:06:17.448Z,5.67
2018-03-23T03:08:46.319Z,5.67
2018-03-23T03:11:15.211Z,5.71
2018-03-23T03:13:44.604Z,5.64
2018-03-23T03:16:13.488Z,5.56
2018-03-23T03:18:42.364Z,5.57
2018-03-23T03:21:11.572Z,5.50
2018-03-23T03:23:40.476Z,5.47
2018-03-23T03:26:09.407Z,5.46
2018-03-23T03:28:38.343Z,5.44
2018-03-23T03:31:07.248Z,5.43
2018-03-23T03:33:36.595Z,5.47
2018-03-23T03:36:06.472Z,5.52
2018-03-23T03:38:35.352Z,5.53
2018-03-23T03:41:04.880Z,5.55
2018-03-23T03:43:33.716Z,5.50
2018-03-23T03:46:03.865Z,5.53
2018-03-23T03:48:32.755Z,5.50
2018-03-23T03:51:01.936Z,5.38
2018-03-23T03:53:31.379Z,5.42
2018-03-23T03:56:00.244Z,5.46
2018-03-23T03:58:29.135Z,5.45
2018-03-23T04:00:59.504Z,5.43
2018-03-23T04:03:28.398Z,5.50
2018-03-23T04:05:57.322Z,5.47
2018-03-23T04:08:26.638Z,5.51
2018-03-23T04:10:55.491Z,5.50
2018-03-23T04:13:24.403Z,5.50
2018-03-23T04:15:53.667Z,5.41
2018-03-23T04:18:23.584Z,5.37
2018-03-23T04:20:52.467Z,5.40
2018-03-23T04:23:21.674Z,5.48
2018-03-23T04:25:50.620Z,5.52
2018-03-23T04:28:19.509Z,5.56
2018-03-23T04:30:48.893Z,5.54
2018-03-23T04:33:17.818Z,5.53
2018-03-23T04:35:46.723Z,5.65
2018-03-23T04:38:15.940Z,5.62
2018-03-23T04:40:44.986Z,5.62
2018-03-23T04:43:13.834Z,5.67
2018-03-23T04:45:43.019Z,5.53
2018-03-23T04:48:11.908Z,5.51
2018-03-23T04:50:40.772Z,5.64
2018-03-23T04:53:09.958Z,5.62
2018-03-23T04:55:38.902Z,5.67
2018-03-23T04:58:08.450Z,5.66
2018-03-23T05:00:38.162Z,5.54
2018-03-23T05:03:07.109Z,5.53
2018-03-23T05:05:36.044Z,5.53
2018-03-23T05:08:06.158Z,5.57
2018-03-23T05:10:35.546Z,5.52
2018-03-23T05:13:05.234Z,5.50
2018-03-23T05:15:34.108Z,5.57
2018-03-23T05:18:04.722Z,5.65
2018-03-23T05:20:33.631Z,5.63
2018-03-23T05:23:02.991Z,5.64
2018-03-23T05:25:32.261Z,5.49
2018-03-23T05:28:01.164Z,5.50
2018-03-23T05:30:30.090Z,5.49
2018-03-23T05:32:59.385Z,5.50
2018-03-23T05:35:28.262Z,5.57
2018-03-23T05:37:57.232Z,5.57
2018-03-23T05:40:26.125Z,5.71
2018-03-23T05:42:54.994Z,5.66
2018-03-23T05:45:24.064Z,5.67
2018-03-23T05:47:53.355Z,5.68
2018-03-23T05:50:22.367Z,5.71
2018-03-23T05:52:51.883Z,5.75
2018-03-23T05:55:21.720Z,5.75
2018-03-23T05:57:51.612Z,5.80
2018-03-23T06:00:20.575Z,5.75
2018-03-23T06:02:49.827Z,5.68
2018-03-23T06:05:18.774Z,5.75
2018-03-23T06:07:47.713Z,5.77
2018-03-23T06:10:18.607Z,5.77
2018-03-23T06:12:47.848Z,5.83
2018-03-23T06:15:16.809Z,5.82
2018-03-23T06:17:46.724Z,5.86
2018-03-23T06:20:15.869Z,5.85
2018-03-23T06:22:50.913Z,5.87
2018-03-23T06:25:19.859Z,5.70
2018-03-23T06:27:48.798Z,5.71
2018-03-23T06:30:18.302Z,5.70
2018-03-23T06:32:47.290Z,5.71
2018-03-23T06:35:16.164Z,5.73
2018-03-23T06:37:45.441Z,5.80
2018-03-23T06:40:14.309Z,5.89
2018-03-23T06:42:43.246Z,5.93
2018-03-23T06:45:12.142Z,5.93
2018-03-23T06:47:41.173Z,5.98
2018-03-23T06:50:10.050Z,5.92
2018-03-23T06:52:39.348Z,5.93
2018-03-23T06:55:08.273Z,6.00
2018-03-23T06:57:37.165Z,6.02
2018-03-23T07:00:07.276Z,5.98
2018-03-23T07:02:36.707Z,5.98
2018-03-23T07:05:06.297Z,5.95
2018-03-23T07:07:35.646Z,5.96
2018-03-23T07:10:05.962Z,5.98
2018-03-23T07:12:34.975Z,6.01
2018-03-23T07:15:05.027Z,5.92
2018-03-23T07:17:33.983Z,5.99
2018-03-23T07:20:04.184Z,5.98
2018-03-23T07:22:33.479Z,6.05
2018-03-23T07:25:03.468Z,6.01
2018-03-23T07:27:32.392Z,6.00
2018-03-23T07:32:29.390Z,5.96
2018-03-23T07:34:58.676Z,6.02
2018-03-23T07:37:28.455Z,5.94
2018-03-23T07:39:57.724Z,6.01
2018-03-23T07:42:27.118Z,5.99
2018-03-23T07:44:56.050Z,6.06
2018-03-23T07:47:24.966Z,6.15
2018-03-23T07:49:54.518Z,6.11
2018-03-23T07:52:23.483Z,6.18
2018-03-23T07:54:52.511Z,6.20
2018-03-23T07:57:21.758Z,6.27
2018-03-23T07:59:50.910Z,6.32
2018-03-23T08:02:19.836Z,6.35
2018-03-23T08:04:49.110Z,6.45
2018-03-23T08:07:33.504Z,6.47
2018-03-23T08:10:04.130Z,6.48
2018-03-23T08:12:33.038Z,6.54
2018-03-23T08:15:03.025Z,6.58
2018-03-23T08:17:32.333Z,6.37
2018-03-23T08:20:01.214Z,6.54
2018-03-23T08:22:30.157Z,6.53
2018-03-23T08:24:59.710Z,6.66
2018-03-23T08:27:28.668Z,6.87
2018-03-23T08:29:57.570Z,6.73
2018-03-23T08:32:26.970Z,6.75
2018-03-23T08:34:56.002Z,6.66
2018-03-23T08:37:24.969Z,6.76
2018-03-23T08:39:54.287Z,6.64
2018-03-23T08:42:23.849Z,6.52
2018-03-23T08:44:52.756Z,6.57
2018-03-23T08:47:22.062Z,6.42
2018-03-23T08:49:50.993Z,6.50
2018-03-23T08:52:20.038Z,6.57
2018-03-23T08:54:49.012Z,6.63
2018-03-23T08:57:17.984Z,6.67
2018-03-23T08:59:48.070Z,6.71
2018-03-23T09:02:16.991Z,6.83
2018-03-23T09:04:45.954Z,6.92
2018-03-23T09:07:15.416Z,7.03
2018-03-23T09:09:44.384Z,6.96
2018-03-23T09:12:13.286Z,7.01
2018-03-23T09:14:44.695Z,7.07
2018-03-23T09:17:13.863Z,7.18
2018-03-23T09:19:42.846Z,7.31
2018-03-23T09:22:12.150Z,7.31
2018-03-23T09:24:41.050Z,7.35
2018-03-23T09:27:09.971Z,7.41
2018-03-23T09:29:39.563Z,7.41
2018-03-23T09:32:08.513Z,7.36
2018-03-23T09:34:37.454Z,7.38
2018-03-23T09:37:06.935Z,7.47
2018-03-23T09:39:35.941Z,7.32
2018-03-23T09:42:06.678Z,7.25
2018-03-23T09:44:35.580Z,7.26
2018-03-23T09:47:04.821Z,7.37
2018-03-23T09:49:34.154Z,7.34
2018-03-23T09:52:04.568Z,7.34
2018-03-23T09:54:33.563Z,7.30
2018-03-23T09:57:04.088Z,7.25
2018-03-23T09:59:32.996Z,7.29
2018-03-23T10:02:03.113Z,7.34
2018-03-23T10:04:32.495Z,7.25
2018-03-23T10:07:01.454Z,7.33
2018-03-23T10:09:30.379Z,7.51
2018-03-23T10:11:59.792Z,7.56
2018-03-23T10:14:28.682Z,7.65
2018-03-23T10:16:57.545Z,7.78
2018-03-23T10:19:26.784Z,7.71
2018-03-23T10:21:55.898Z,7.67
2018-03-23T10:24:25.252Z,7.74
2018-03-23T10:26:54.283Z,7.75
2018-03-23T10:29:23.456Z,7.82
2018-03-23T10:31:52.738Z,7.81
2018-03-23T10:34:21.658Z,7.71
2018-03-23T10:36:51.793Z,7.57
2018-03-23T10:39:21.179Z,7.71
2018-03-23T10:41:50.113Z,7.79
2018-03-23T10:44:19.207Z,7.70
2018-03-23T10:46:48.654Z,7.91
2018-03-23T10:49:17.575Z,8.17
2018-03-23T10:51:46.536Z,8.33
2018-03-23T10:54:15.912Z,8.44
2018-03-23T10:56:44.817Z,8.54
2018-03-23T10:59:13.775Z,8.74
2018-03-23T11:01:48.226Z,8.93
2018-03-23T11:04:17.207Z,9.12
2018-03-23T11:06:46.698Z,9.17
2018-03-23T11:09:15.567Z,9.15
2018-03-23T11:11:44.528Z,9.20
2018-03-23T11:14:14.209Z,9.21
2018-03-23T11:16:43.222Z,9.30
2018-03-23T11:19:12.672Z,9.52
2018-03-23T11:21:41.975Z,9.46
2018-03-23T11:24:11.167Z,9.41
2018-03-23T11:26:40.050Z,9.19
2018-03-23T11:29:10.339Z,8.98
2018-03-23T11:31:39.319Z,8.97
2018-03-23T11:34:08.266Z,8.88
2018-03-23T11:36:38.761Z,8.95
2018-03-23T11:39:08.532Z,8.87
2018-03-23T11:41:37.567Z,8.87
2018-03-23T11:44:06.518Z,8.82
2018-03-23T11:46:35.632Z,8.87
2018-03-23T11:49:05.596Z,9.03
2018-03-23T11:51:34.617Z,9.02
2018-03-23T11:54:05.200Z,9.04
2018-03-23T11:56:34.698Z,9.14
2018-03-23T11:59:06.326Z,9.30
2018-03-23T12:01:35.343Z,9.16
2018-03-23T12:04:05.776Z,9.24
2018-03-23T12:06:34.748Z,9.21
2018-03-23T12:09:04.788Z,9.03
2018-03-23T12:11:33.859Z,9.25
2018-03-23T12:14:04.071Z,9.33
2018-03-23T12:16:33.319Z,9.33
2018-03-23T12:19:02.385Z,9.30
2018-03-23T12:21:31.342Z,9.36
2018-03-23T12:24:00.755Z,9.34
2018-03-23T12:26:29.683Z,9.26
2018-03-23T12:28:58.620Z,9.36
2018-03-23T12:31:27.869Z,9.31
2018-03-23T12:33:56.831Z,9.32
2018-03-23T12:36:25.759Z,9.36
2018-03-23T12:38:55.190Z,9.39
2018-03-23T12:41:24.200Z,9.36
2018-03-23T12:43:53.323Z,9.23
2018-03-23T12:46:23.616Z,9.16
2018-03-23T12:48:52.570Z,9.25
2018-03-23T12:51:21.507Z,9.13
2018-03-23T12:53:50.395Z,9.11
2018-03-23T12:56:19.386Z,9.12
2018-03-23T12:58:49.108Z,9.23
2018-03-23T13:01:18.069Z,9.27
2018-03-23T13:03:46.979Z,9.30
2018-03-23T13:06:17.264Z,9.22
2018-03-23T13:08:46.251Z,9.21
2018-03-23T13:11:15.278Z,9.04
2018-03-23T13:13:44.650Z,9.06
2018-03-23T13:16:13.643Z,9.09
2018-03-23T13:18:42.603Z,9.16
2018-03-23T13:21:11.836Z,9.19
2018-03-23T13:23:40.774Z,9.23
2018-03-23T13:26:09.775Z,9.23
2018-03-23T13:28:39.318Z,9.26
2018-03-23T13:31:08.651Z,9.37
2018-03-23T13:33:37.860Z,9.27
2018-03-23T13:36:07.284Z,9.28
2018-03-23T13:38:36.279Z,9.40
2018-03-23T13:41:05.711Z,9.46
2018-03-23T13:43:34.623Z,9.47
2018-03-23T13:46:04.530Z,9.45
2018-03-23T13:48:33.805Z,9.57
2018-03-23T13:51:03.807Z,9.48
2018-03-23T13:53:32.691Z,9.57
2018-03-23T13:56:03.469Z,9.46
2018-03-23T13:58:36.642Z,9.52
2018-03-23T14:01:05.911Z,9.52
2018-03-23T14:03:34.948Z,9.42
2018-03-23T14:06:06.168Z,9.42
2018-03-23T14:08:35.760Z,9.34
2018-03-23T14:11:05.423Z,9.27
2018-03-23T14:13:34.374Z,9.32
2018-03-23T14:16:07.233Z,9.37
2018-03-23T14:18:36.437Z,9.46
2018-03-23T14:21:06.143Z,9.36
2018-03-23T14:23:35.602Z,9.38
2018-03-23T14:26:05.752Z,9.32
2018-03-23T14:28:34.736Z,9.26
2018-03-23T14:31:04.484Z,9.31
2018-03-23T14:33:33.690Z,9.22
2018-03-23T14:36:03.539Z,9.23
2018-03-23T14:38:32.922Z,9.17
2018-03-23T14:41:02.036Z,9.16
2018-03-23T14:43:30.989Z,9.14
2018-03-23T14:46:00.542Z,9.24
2018-03-23T14:48:29.532Z,9.11
2018-03-23T14:50:58.411Z,9.16
2018-03-23T14:53:27.798Z,9.14
2018-03-23T14:55:56.766Z,9.13
2018-03-23T14:58:26.317Z,9.20
2018-03-23T15:00:55.326Z,9.23
2018-03-23T15:03:24.266Z,9.26
2018-03-23T15:05:53.648Z,9.20
2018-03-23T15:08:23.234Z,9.10
2018-03-23T15:10:52.182Z,9.10
2018-03-23T15:13:21.588Z,9.12
2018-03-23T15:15:50.555Z,9.18
2018-03-23T15:18:19.708Z,9.16
2018-03-23T15:20:49.048Z,9.19
2018-03-23T15:23:18.345Z,9.24
2018-03-23T15:25:50.216Z,9.13
2018-03-23T15:28:19.734Z,9.19
2018-03-23T15:30:48.712Z,9.22
2018-03-23T15:33:18.165Z,9.26
2018-03-23T15:35:47.803Z,9.23
2018-03-23T15:38:17.429Z,9.29
2018-03-23T15:40:46.410Z,9.33
2018-03-23T15:43:15.635Z,9.23
2018-03-23T15:45:44.620Z,9.14
2018-03-23T15:48:14.204Z,9.21
2018-03-23T15:50:43.104Z,9.33
2018-03-23T15:53:12.161Z,9.41
2018-03-23T15:55:41.900Z,9.41
2018-03-23T15:58:11.460Z,9.38
2018-03-23T16:00:40.572Z,9.45
2018-03-23T16:03:10.061Z,9.37
2018-03-23T16:05:39.078Z,9.44
2018-03-23T16:08:08.094Z,9.46
2018-03-23T16:10:37.971Z,9.46
2018-03-23T16:13:07.206Z,9.51
2018-03-23T16:15:36.159Z,9.50
2018-03-23T16:18:07.506Z,9.51
2018-03-23T16:20:36.465Z,9.56
2018-03-23T16:23:05.739Z,9.49
2018-03-23T16:25:34.723Z,9.47
2018-03-23T16:28:05.115Z,9.48
2018-03-23T16:30:34.371Z,9.41
2018-03-23T16:33:03.831Z,9.44
2018-03-23T16:35:32.872Z,9.52
2018-03-23T16:38:03.178Z,9.52
2018-03-23T16:40:32.376Z,9.51
2018-03-23T16:43:01.493Z,9.42
2018-03-23T16:45:30.739Z,9.42
2018-03-23T16:47:59.697Z,9.52
2018-03-23T16:50:28.613Z,9.45
2018-03-23T16:52:58.036Z,9.38
2018-03-23T16:55:26.959Z,9.35
2018-03-23T16:57:55.960Z,9.34
2018-03-23T17:00:26.264Z,9.37
2018-03-23T17:02:55.526Z,9.30
2018-03-23T17:05:24.454Z,9.38
2018-03-23T17:07:53.382Z,9.38
2018-03-23T17:10:22.873Z,9.32
2018-03-23T17:12:52.123Z,9.41
2018-03-23T17:15:21.206Z,9.30
2018-03-23T17:17:50.100Z,9.25
2018-03-23T17:20:19.789Z,9.28
2018-03-23T17:22:48.682Z,9.18
2018-03-23T17:25:17.791Z,9.21
2018-03-23T17:27:47.066Z,9.23
2018-03-23T17:30:16.479Z,9.31
2018-03-23T17:32:46.013Z,9.32
2018-03-23T17:35:15.244Z,9.33
2018-03-23T17:37:44.141Z,9.25
2018-03-23T17:40:13.272Z,9.26
2018-03-23T17:42:42.419Z,9.28
2018-03-23T17:47:35.853Z,9.28
2018-03-23T17:50:06.431Z,9.24
2018-03-23T17:52:35.408Z,9.24
2018-03-23T17:55:05.379Z,9.16
2018-03-23T17:57:34.641Z,9.14
2018-03-23T18:00:06.156Z,9.16
2018-03-23T18:02:35.398Z,9.23
2018-03-23T18:05:05.045Z,9.25
2018-03-23T18:07:33.924Z,9.17
2018-03-23T18:10:03.988Z,9.19
2018-03-23T18:12:33.135Z,9.16
2018-03-23T18:15:02.127Z,9.17
2018-03-23T18:17:31.051Z,9.13
2018-03-23T18:20:00.798Z,9.10
2018-03-23T18:22:29.775Z,9.10
2018-03-23T18:24:58.711Z,9.11
2018-03-23T18:27:27.919Z,9.15
2018-03-23T18:29:56.886Z,9.16
2018-03-23T18:32:25.875Z,9.14
2018-03-23T18:34:56.305Z,9.16
2018-03-23T18:37:25.366Z,9.12
2018-03-23T18:39:54.709Z,9.16
2018-03-23T18:42:23.946Z,9.20
2018-03-23T18:44:52.862Z,9.18
2018-03-23T18:47:21.769Z,9.13
2018-03-23T18:49:51.146Z,9.11
2018-03-23T18:52:20.131Z,9.15
2018-03-23T18:54:49.262Z,9.23
2018-03-23T18:57:18.625Z,9.23
2018-03-23T18:59:49.171Z,9.20
2018-03-23T19:02:18.393Z,9.20
2018-03-23T19:04:47.795Z,9.20
2018-03-23T19:07:16.956Z,9.19
2018-03-23T19:09:46.047Z,9.19
2018-03-23T19:12:17.519Z,9.05
2018-03-23T19:14:47.204Z,9.13
2018-03-23T19:17:17.295Z,9.16
2018-03-23T19:19:46.770Z,9.19
2018-03-23T19:22:15.700Z,9.19
2018-03-23T19:24:44.674Z,9.19
2018-03-23T19:27:13.893Z,9.21
2018-03-23T19:29:42.873Z,9.12
2018-03-23T19:32:12.790Z,9.10
2018-03-23T19:34:41.983Z,9.11
2018-03-23T19:37:11.923Z,9.02
2018-03-23T19:39:41.141Z,8.96
2018-03-23T19:42:10.691Z,9.00
2018-03-23T19:44:40.753Z,8.98
2018-03-23T19:49:42.580Z,9.05
2018-03-23T19:52:11.603Z,9.11
2018-03-23T19:54:40.521Z,9.12
2018-03-23T19:57:09.796Z,9.03
2018-03-23T19:59:38.682Z,9.05
2018-03-23T20:02:07.650Z,9.08
2018-03-23T20:04:37.149Z,9.06
2018-03-23T20:07:07.101Z,9.02
2018-03-23T20:09:35.978Z,8.89
2018-03-23T20:12:07.197Z,8.86
2018-03-23T20:14:36.155Z,8.89
2018-03-23T20:17:05.384Z,8.90
2018-03-23T20:19:35.863Z,8.88
2018-03-23T20:22:05.940Z,8.90
2018-03-23T20:24:34.843Z,8.89
2018-03-23T20:27:09.659Z,8.94
2018-03-23T20:29:38.715Z,8.97
2018-03-23T20:32:12.406Z,8.97
2018-03-23T20:34:41.936Z,8.94
2018-03-23T20:37:11.577Z,8.86
2018-03-23T20:39:40.447Z,8.83
2018-03-23T20:42:09.761Z,8.87
2018-03-23T20:44:38.608Z,8.89
2018-03-23T20:47:07.504Z,8.88
2018-03-23T20:49:36.816Z,8.86
2018-03-23T20:52:06.490Z,8.88
2018-03-23T20:54:35.415Z,8.86
2018-03-23T20:57:05.583Z,8.86
2018-03-23T20:59:34.645Z,8.87
2018-03-23T21:02:04.607Z,8.81
2018-03-23T21:04:33.971Z,8.76
2018-03-23T21:07:03.449Z,8.73
2018-03-23T21:09:32.316Z,8.71
2018-03-23T21:12:01.350Z,8.71
2018-03-23T21:14:30.514Z,8.74
2018-03-23T21:17:00.906Z,8.67
2018-03-23T21:19:29.800Z,8.65
2018-03-23T21:21:58.792Z,8.63
2018-03-23T21:24:29.087Z,8.59
2018-03-23T21:26:58.969Z,8.56
2018-03-23T21:29:28.548Z,8.54
2018-03-23T21:31:58.463Z,8.60
2018-03-23T21:34:27.430Z,8.55
2018-03-23T21:36:56.885Z,8.56
2018-03-23T21:39:26.182Z,8.52
2018-03-23T21:41:55.053Z,8.43
2018-03-23T21:44:24.389Z,8.44
2018-03-23T21:46:53.723Z,8.43
2018-03-23T21:49:22.614Z,8.38
2018-03-23T21:51:51.535Z,8.40
2018-03-23T21:54:20.427Z,8.42
2018-03-23T21:56:49.277Z,8.40
2018-03-23T21:59:18.776Z,8.48
2018-03-23T22:01:47.625Z,8.49
2018-03-23T22:04:16.946Z,8.58
2018-03-23T22:06:46.271Z,8.58
2018-03-23T22:09:15.255Z,8.60
2018-03-23T22:11:44.193Z,8.60
2018-03-23T22:14:13.563Z,8.58
2018-03-23T22:16:42.439Z,8.49
2018-03-23T22:19:11.372Z,8.49
2018-03-23T22:21:40.725Z,8.50
2018-03-23T22:24:09.730Z,8.50
2018-03-23T22:26:39.677Z,8.50
2018-03-23T22:29:08.955Z,8.38
2018-03-23T22:31:37.906Z,8.38
2018-03-23T22:34:06.930Z,8.36
2018-03-23T22:36:35.880Z,8.33
2018-03-23T22:39:06.348Z,8.31
2018-03-23T22:41:35.679Z,8.29
2018-03-23T22:44:05.715Z,8.29
2018-03-23T22:46:34.722Z,8.19
2018-03-23T22:49:05.536Z,8.18
2018-03-23T22:51:35.080Z,8.15
2018-03-23T22:54:05.859Z,8.12
2018-03-23T22:56:34.739Z,8.08
2018-03-23T22:59:05.209Z,8.07
2018-03-23T23:01:34.176Z,8.09
2018-03-23T23:04:04.616Z,8.08
2018-03-23T23:06:33.571Z,8.05
2018-03-23T23:09:02.735Z,8.05
2018-03-23T23:11:31.928Z,8.00
2018-03-23T23:14:00.810Z,8.03
2018-03-23T23:16:29.787Z,7.99
2018-03-23T23:18:58.671Z,7.96
2018-03-23T23:21:27.563Z,7.95
2018-03-23T23:23:56.986Z,7.93
2018-03-23T23:26:25.898Z,7.94
2018-03-23T23:28:54.783Z,7.94
2018-03-23T23:31:24.479Z,7.92
2018-03-23T23:33:53.462Z,7.92
2018-03-23T23:36:22.320Z,7.90
2018-03-23T23:38:51.508Z,7.88
2018-03-23T23:41:20.368Z,7.84
2018-03-23T23:43:49.240Z,7.81
2018-03-23T23:46:18.426Z,7.73
2018-03-23T23:48:47.327Z,7.68
2018-03-23T23:51:16.231Z,7.70
2018-03-23T23:53:45.489Z,7.65
2018-03-23T23:56:14.349Z,7.70
2018-03-23T23:58:43.237Z,7.52
